createdAt,value
2023-05-05T00:00:30.462Z,10.43
2023-05-05T00:03:01.236Z,10.44
2023-05-05T00:05:32.699Z,10.45
2023-05-05T00:08:03.801Z,10.46
2023-05-05T00:10:34.654Z,10.48
2023-05-05T00:13:08.127Z,10.47
2023-05-05T00:15:39.078Z,10.46
2023-05-05T00:18:09.762Z,10.46
2023-05-05T00:20:40.637Z,10.45
2023-05-05T00:23:11.520Z,10.47
2023-05-05T00:25:42.582Z,10.48
2023-05-05T00:28:16.206Z,10.49
2023-05-05T00:30:47.271Z,10.51
2023-05-05T00:33:18.270Z,10.51
2023-05-05T00:35:50.400Z,10.51
2023-05-05T00:38:21.140Z,10.52
2023-05-05T00:40:51.994Z,10.52
2023-05-05T00:43:25.307Z,10.53
2023-05-05T00:46:02.211Z,10.51
2023-05-05T00:48:33.720Z,10.49
2023-05-05T00:51:09.028Z,10.50
2023-05-05T00:53:41.706Z,10.48
2023-05-05T00:56:13.201Z,10.47
2023-05-05T00:58:47.398Z,10.45
2023-05-05T01:01:18.545Z,10.43
2023-05-05T01:03:49.341Z,10.44
2023-05-05T01:06:35.753Z,10.43
2023-05-05T01:09:14.984Z,10.40
2023-05-05T01:11:52.953Z,10.41
2023-05-05T01:14:35.469Z,10.38
2023-05-05T01:17:17.493Z,10.36
2023-05-05T01:20:11.579Z,10.34
2023-05-05T01:22:48.458Z,10.29
2023-05-05T01:25:43.258Z,10.33
2023-05-05T01:28:31.170Z,10.32
2023-05-05T01:31:26.857Z,10.33
2023-05-05T01:34:07.426Z,10.32
2023-05-05T01:36:42.611Z,10.30
2023-05-05T01:39:18.800Z,10.32
2023-05-05T01:41:52.372Z,10.33
2023-05-05T01:44:23.405Z,10.31
2023-05-05T01:46:56.391Z,10.33
2023-05-05T01:49:30.620Z,10.32
2023-05-05T01:52:04.067Z,10.33
2023-05-05T01:54:37.819Z,10.34
2023-05-05T01:57:10.629Z,10.30
2023-05-05T01:59:42.824Z,10.34
2023-05-05T02:02:16.522Z,10.37
2023-05-05T02:04:52.265Z,10.36
2023-05-05T02:07:23.953Z,10.38
2023-05-05T02:09:56.144Z,10.38
2023-05-05T02:12:26.953Z,10.40
2023-05-05T02:15:00.923Z,10.38
2023-05-05T02:17:33.289Z,10.40
2023-05-05T02:20:07.984Z,10.40
2023-05-05T02:22:38.880Z,10.39
2023-05-05T02:25:11.043Z,10.39
2023-05-05T02:27:46.229Z,10.39
2023-05-05T02:30:20.025Z,10.39
2023-05-05T02:32:56.672Z,10.39
2023-05-05T02:35:38.836Z,10.38
2023-05-05T02:38:17.647Z,10.38
2023-05-05T02:40:53.378Z,10.38
2023-05-05T02:43:27.846Z,10.36
2023-05-05T02:45:59.401Z,10.36
2023-05-05T02:48:32.031Z,10.33
2023-05-05T02:51:08.576Z,10.33
2023-05-05T02:53:42.128Z,10.33
2023-05-05T02:56:25.653Z,10.32
2023-05-05T02:59:12.865Z,10.32
2023-05-05T03:01:58.002Z,10.30
2023-05-05T03:04:38.173Z,10.28
2023-05-05T03:07:16.381Z,10.27
2023-05-05T03:09:59.186Z,10.26
2023-05-05T03:12:36.829Z,10.21
2023-05-05T03:15:18.612Z,10.24
2023-05-05T03:17:50.341Z,10.24
2023-05-05T03:20:21.591Z,10.20
2023-05-05T03:22:56.565Z,10.22
2023-05-05T03:25:44.835Z,10.21
2023-05-05T03:28:21.622Z,10.21
2023-05-05T03:30:52.337Z,10.21
2023-05-05T03:33:23.354Z,10.20
2023-05-05T03:35:54.802Z,10.22
2023-05-05T03:38:28.172Z,10.22
2023-05-05T03:40:59.092Z,10.21
2023-05-05T03:43:30.296Z,10.23
2023-05-05T03:46:01.722Z,10.23
2023-05-05T03:48:32.673Z,10.24
2023-05-05T03:51:03.536Z,10.24
2023-05-05T03:53:39.213Z,10.24
2023-05-05T03:56:11.918Z,10.25
2023-05-05T03:58:42.677Z,10.25
2023-05-05T04:01:13.449Z,10.14
2023-05-05T04:03:44.233Z,10.26
2023-05-05T04:06:15.043Z,10.25
2023-05-05T04:08:48.436Z,10.27
2023-05-05T04:11:19.205Z,10.26
2023-05-05T04:13:50.322Z,10.26
2023-05-05T04:16:22.526Z,10.24
2023-05-05T04:18:53.450Z,10.24
2023-05-05T04:21:24.039Z,10.23
2023-05-05T04:23:58.132Z,10.23
2023-05-05T04:26:29.529Z,10.23
2023-05-05T04:29:00.912Z,10.23
2023-05-05T04:31:32.441Z,10.25
2023-05-05T04:34:03.766Z,10.27
2023-05-05T04:36:34.367Z,10.28
2023-05-05T04:39:07.826Z,10.29
2023-05-05T04:41:40.072Z,10.31
2023-05-05T04:44:11.639Z,10.33
2023-05-05T04:46:42.481Z,10.35
2023-05-05T04:49:13.249Z,10.36
2023-05-05T04:51:45.108Z,10.37
2023-05-05T04:54:18.490Z,10.36
2023-05-05T04:56:49.077Z,10.39
2023-05-05T04:59:19.949Z,10.38
2023-05-05T05:01:50.692Z,10.40
2023-05-05T05:04:22.065Z,10.41
2023-05-05T05:06:53.045Z,10.41
2023-05-05T05:09:26.351Z,10.40
2023-05-05T05:11:58.031Z,10.41
2023-05-05T05:14:29.183Z,10.42
2023-05-05T05:16:59.817Z,10.45
2023-05-05T05:19:30.550Z,10.45
2023-05-05T05:22:01.268Z,10.46
2023-05-05T05:24:36.637Z,10.47
2023-05-05T05:27:09.968Z,10.50
2023-05-05T05:29:43.936Z,10.52
2023-05-05T05:32:14.792Z,10.53
2023-05-05T05:34:45.896Z,10.55
2023-05-05T05:37:17.046Z,10.56
2023-05-05T05:39:54.830Z,10.55
2023-05-05T05:42:27.148Z,10.54
2023-05-05T05:44:58.990Z,10.55
2023-05-05T05:47:30.084Z,10.54
2023-05-05T05:50:01.807Z,10.55
2023-05-05T05:52:33.382Z,10.54
2023-05-05T05:55:07.598Z,10.54
2023-05-05T05:57:38.563Z,10.54
2023-05-05T06:00:12.896Z,10.53
2023-05-05T06:02:45.579Z,10.54
2023-05-05T06:05:20.127Z,10.54
2023-05-05T06:07:53.254Z,10.54
2023-05-05T06:10:28.715Z,10.52
2023-05-05T06:13:09.869Z,10.53
2023-05-05T06:15:44.871Z,10.53
2023-05-05T06:18:17.446Z,10.57
2023-05-05T06:20:48.200Z,10.60
2023-05-05T06:23:19.258Z,10.64
2023-05-05T06:25:58.233Z,10.68
2023-05-05T06:28:28.966Z,10.71
2023-05-05T06:30:59.701Z,10.74
2023-05-05T06:33:30.407Z,10.73
2023-05-05T06:36:01.005Z,10.75
2023-05-05T06:38:31.717Z,10.78
2023-05-05T06:41:05.015Z,10.80
2023-05-05T06:43:36.001Z,10.84
2023-05-05T06:46:11.203Z,10.89
2023-05-05T06:48:41.914Z,10.94
2023-05-05T06:51:12.960Z,10.98
2023-05-05T06:53:43.611Z,11.02
2023-05-05T06:56:16.859Z,11.07
2023-05-05T06:58:47.503Z,11.14
2023-05-05T07:01:18.168Z,11.24
2023-05-05T07:03:49.176Z,11.43
2023-05-05T07:06:19.773Z,11.62
2023-05-05T07:08:50.585Z,11.86
2023-05-05T07:11:23.762Z,12.10
2023-05-05T07:13:54.389Z,12.35
2023-05-05T07:16:25.154Z,12.62
2023-05-05T07:18:55.867Z,12.89
2023-05-05T07:21:26.961Z,13.30
2023-05-05T07:23:57.640Z,13.68
2023-05-05T07:26:30.933Z,14.13
2023-05-05T07:29:01.885Z,14.59
2023-05-05T07:31:32.577Z,15.01
2023-05-05T07:34:03.205Z,15.26
2023-05-05T07:36:33.814Z,15.53
2023-05-05T07:39:04.392Z,15.76
2023-05-05T07:41:37.725Z,15.98
2023-05-05T07:44:08.589Z,16.10
2023-05-05T07:46:39.270Z,16.10
2023-05-05T07:49:09.905Z,16.05
2023-05-05T07:51:40.830Z,16.01
2023-05-05T07:54:11.706Z,16.01
2023-05-05T07:56:45.051Z,16.15
2023-05-05T07:59:15.801Z,16.28
2023-05-05T08:01:46.613Z,16.37
2023-05-05T08:04:17.305Z,16.51
2023-05-05T08:06:48.052Z,16.66
2023-05-05T08:09:18.690Z,16.77
2023-05-05T08:11:52.041Z,16.85
2023-05-05T08:14:22.698Z,16.97
2023-05-05T08:16:53.426Z,17.12
2023-05-05T08:19:28.935Z,17.18
2023-05-05T08:22:01.603Z,17.21
2023-05-05T08:24:32.422Z,17.25
2023-05-05T08:27:05.799Z,17.27
2023-05-05T08:29:36.372Z,17.34
2023-05-05T08:32:07.331Z,17.56
2023-05-05T08:34:37.980Z,17.79
2023-05-05T08:37:08.728Z,17.81
2023-05-05T08:39:39.417Z,17.74
2023-05-05T08:42:19.632Z,17.61
2023-05-05T08:44:58.824Z,17.39
2023-05-05T08:47:30.429Z,17.14
2023-05-05T08:50:03.488Z,16.91
2023-05-05T08:52:41.565Z,16.74
2023-05-05T08:55:18.418Z,16.56
2023-05-05T08:57:55.233Z,16.44
2023-05-05T09:00:27.472Z,16.36
2023-05-05T09:03:00.431Z,16.30
2023-05-05T09:05:31.504Z,16.26
2023-05-05T09:08:02.699Z,16.24
2023-05-05T09:10:35.172Z,16.21
2023-05-05T09:13:10.430Z,16.19
2023-05-05T09:15:42.428Z,16.18
2023-05-05T09:18:13.477Z,16.27
2023-05-05T09:20:44.708Z,16.42
2023-05-05T09:23:17.036Z,16.53
2023-05-05T09:25:50.014Z,16.59
2023-05-05T09:28:23.393Z,16.58
2023-05-05T09:30:54.128Z,16.51
2023-05-05T09:33:33.170Z,16.38
2023-05-05T09:36:03.873Z,16.37
2023-05-05T09:38:34.777Z,16.31
2023-05-05T09:41:05.690Z,16.30
2023-05-05T09:43:54.744Z,16.42
2023-05-05T09:46:27.786Z,16.58
2023-05-05T09:48:58.682Z,16.77
2023-05-05T09:51:32.429Z,16.93
2023-05-05T09:54:03.187Z,17.05
2023-05-05T09:56:43.676Z,17.19
2023-05-05T09:59:17.090Z,17.36
2023-05-05T10:01:49.085Z,17.46
2023-05-05T10:04:28.533Z,17.55
2023-05-05T10:07:00.627Z,17.58
2023-05-05T10:09:32.045Z,17.61
2023-05-05T10:12:03.733Z,17.64
2023-05-05T10:14:38.959Z,17.60
2023-05-05T10:17:10.291Z,17.52
2023-05-05T10:19:42.551Z,17.42
2023-05-05T10:22:13.933Z,17.30
2023-05-05T10:24:50.595Z,17.19
2023-05-05T10:27:23.650Z,17.10
2023-05-05T10:30:08.954Z,17.05
2023-05-05T10:32:59.337Z,17.01
2023-05-05T10:35:38.820Z,16.98
2023-05-05T10:38:11.908Z,16.95
2023-05-05T10:40:46.968Z,16.92
2023-05-05T10:43:18.325Z,16.83
2023-05-05T10:45:52.310Z,16.82
2023-05-05T10:48:30.853Z,16.79
2023-05-05T10:51:09.048Z,16.76
2023-05-05T10:53:45.898Z,16.75
2023-05-05T10:56:26.880Z,16.71
2023-05-05T10:59:00.228Z,16.65
2023-05-05T11:01:36.763Z,16.58
2023-05-05T11:04:22.018Z,16.54
2023-05-05T11:07:24.440Z,16.50
2023-05-05T11:10:02.284Z,16.46
2023-05-05T11:13:11.965Z,16.40
2023-05-05T11:15:42.884Z,16.34
2023-05-05T11:18:36.599Z,16.30
2023-05-05T11:21:18.445Z,16.25
2023-05-05T11:23:51.160Z,16.19
2023-05-05T11:26:42.565Z,16.12
2023-05-05T11:29:15.804Z,16.05
2023-05-05T11:31:48.162Z,15.98
2023-05-05T11:34:30.055Z,15.91
2023-05-05T11:37:04.684Z,15.87
2023-05-05T11:39:54.225Z,15.82
2023-05-05T11:42:27.782Z,15.75
2023-05-05T11:45:01.525Z,15.72
2023-05-05T11:47:36.614Z,15.68
2023-05-05T11:50:23.692Z,15.66
2023-05-05T11:52:54.397Z,15.63
2023-05-05T11:55:25.552Z,15.59
2023-05-05T11:57:56.598Z,15.54
2023-05-05T12:00:39.130Z,15.49
2023-05-05T12:03:09.881Z,15.44
2023-05-05T12:05:40.803Z,15.42
2023-05-05T12:08:11.982Z,15.39
2023-05-05T12:10:42.783Z,15.36
2023-05-05T12:13:21.750Z,15.29
2023-05-05T12:15:55.182Z,15.24
2023-05-05T12:18:25.890Z,15.17
2023-05-05T12:20:56.750Z,15.15
2023-05-05T12:23:30.371Z,15.12
2023-05-05T12:26:01.272Z,15.09
2023-05-05T12:28:46.995Z,15.04
2023-05-05T12:31:20.241Z,15.02
2023-05-05T12:33:51.689Z,15.01
2023-05-05T12:36:22.634Z,14.97
2023-05-05T12:38:53.347Z,14.97
2023-05-05T12:41:24.323Z,14.95
2023-05-05T12:43:59.353Z,14.96
2023-05-05T12:46:32.888Z,14.94
2023-05-05T12:49:05.595Z,14.94
2023-05-05T12:51:37.751Z,14.91
2023-05-05T12:54:10.111Z,14.88
2023-05-05T12:56:42.376Z,14.85
2023-05-05T12:59:14.632Z,14.83
2023-05-05T13:01:55.394Z,14.80
2023-05-05T13:04:27.618Z,14.76
2023-05-05T13:07:14.505Z,14.76
2023-05-05T13:09:45.754Z,14.71
2023-05-05T13:12:16.791Z,14.77
2023-05-05T13:14:48.038Z,14.78
2023-05-05T13:17:21.423Z,14.80
2023-05-05T13:19:52.492Z,14.77
2023-05-05T13:22:23.299Z,14.71
2023-05-05T13:24:54.095Z,14.63
2023-05-05T13:27:24.952Z,14.55
2023-05-05T13:29:55.682Z,14.48
2023-05-05T13:32:29.136Z,14.42
2023-05-05T13:34:59.925Z,14.36
2023-05-05T13:37:30.939Z,14.34
2023-05-05T13:40:01.730Z,14.30
2023-05-05T13:42:34.473Z,14.33
2023-05-05T13:45:05.855Z,14.35
2023-05-05T13:47:39.624Z,14.39
2023-05-05T13:50:11.655Z,14.46
2023-05-05T13:52:42.612Z,14.53
2023-05-05T13:55:13.561Z,14.57
2023-05-05T13:57:46.813Z,14.62
2023-05-05T14:00:19.350Z,14.65
2023-05-05T14:02:52.845Z,14.69
2023-05-05T14:05:23.623Z,14.70
2023-05-05T14:07:54.552Z,14.69
2023-05-05T14:10:26.546Z,14.19
2023-05-05T14:12:57.625Z,13.39
2023-05-05T14:15:28.444Z,12.52
2023-05-05T14:18:02.631Z,11.80
2023-05-05T14:20:33.376Z,11.33
2023-05-05T14:23:04.460Z,11.05
2023-05-05T14:25:35.478Z,10.86
2023-05-05T14:28:06.407Z,10.82
2023-05-05T14:30:37.197Z,10.83
2023-05-05T14:33:10.595Z,10.80
2023-05-05T14:35:41.429Z,10.80
2023-05-05T14:38:12.471Z,10.79
2023-05-05T14:40:43.310Z,10.79
2023-05-05T14:43:13.994Z,10.79
2023-05-05T14:45:44.733Z,10.78
2023-05-05T14:48:18.499Z,10.76
2023-05-05T14:50:50.230Z,10.73
2023-05-05T14:53:22.117Z,10.68
2023-05-05T14:55:52.782Z,10.66
2023-05-05T14:58:24.906Z,10.67
2023-05-05T15:00:55.911Z,10.88
2023-05-05T15:03:30.136Z,10.97
2023-05-05T15:06:01.450Z,10.85
2023-05-05T15:08:32.116Z,10.72
2023-05-05T15:11:02.938Z,10.57
2023-05-05T15:13:33.863Z,10.49
2023-05-05T15:16:04.624Z,10.39
2023-05-05T15:18:38.704Z,10.33
2023-05-05T15:21:09.671Z,10.27
2023-05-05T15:23:40.441Z,10.22
2023-05-05T15:26:14.248Z,10.14
2023-05-05T15:28:45.036Z,10.17
2023-05-05T15:31:15.979Z,10.17
2023-05-05T15:33:51.772Z,10.23
2023-05-05T15:36:24.470Z,10.23
2023-05-05T15:38:55.297Z,10.23
2023-05-05T15:41:27.545Z,10.21
2023-05-05T15:43:58.332Z,10.20
2023-05-05T15:46:29.262Z,10.22
2023-05-05T15:49:02.713Z,10.24
2023-05-05T15:51:33.530Z,10.24
2023-05-05T15:54:04.235Z,10.22
2023-05-05T15:56:35.936Z,10.23
2023-05-05T15:59:06.920Z,10.21
2023-05-05T16:01:38.816Z,10.19
2023-05-05T16:04:12.593Z,10.16
2023-05-05T16:06:43.447Z,10.15
2023-05-05T16:09:14.123Z,10.10
2023-05-05T16:11:44.873Z,10.13
2023-05-05T16:14:15.570Z,10.27
2023-05-05T16:16:46.341Z,10.43
2023-05-05T16:19:19.802Z,10.58
2023-05-05T16:21:50.675Z,10.73
2023-05-05T16:24:21.598Z,10.90
2023-05-05T16:26:52.552Z,11.05
2023-05-05T16:29:23.385Z,11.21
2023-05-05T16:31:54.323Z,11.35
2023-05-05T16:34:27.796Z,11.48
2023-05-05T16:36:58.718Z,11.60
2023-05-05T16:39:29.538Z,11.72
2023-05-05T16:42:00.326Z,11.83
2023-05-05T16:44:31.110Z,11.92
2023-05-05T16:47:01.840Z,12.01
2023-05-05T16:49:36.677Z,12.08
2023-05-05T16:52:07.923Z,12.14
2023-05-05T16:54:38.643Z,12.21
2023-05-05T16:57:09.467Z,12.26
2023-05-05T16:59:41.995Z,12.31
2023-05-05T17:02:13.174Z,12.36
2023-05-05T17:04:46.517Z,12.40
2023-05-05T17:07:17.328Z,12.42
2023-05-05T17:09:48.086Z,12.46
2023-05-05T17:12:18.966Z,12.47
2023-05-05T17:14:49.790Z,12.49
2023-05-05T17:17:21.047Z,12.45
2023-05-05T17:19:54.664Z,11.95
2023-05-05T17:22:25.806Z,11.32
2023-05-05T17:24:57.427Z,10.88
2023-05-05T17:27:30.822Z,10.58
2023-05-05T17:30:02.076Z,10.41
2023-05-05T17:32:36.211Z,10.33
2023-05-05T17:35:10.950Z,10.27
2023-05-05T17:37:42.561Z,10.24
2023-05-05T17:40:16.803Z,10.20
2023-05-05T17:42:48.242Z,10.16
2023-05-05T17:45:19.810Z,10.12
2023-05-05T17:47:51.697Z,10.07
2023-05-05T17:50:25.699Z,10.03
2023-05-05T17:52:59.988Z,9.99
2023-05-05T17:55:31.493Z,10.03
2023-05-05T17:58:02.461Z,10.16
2023-05-05T18:00:33.273Z,10.19
2023-05-05T18:03:04.582Z,10.04
2023-05-05T18:05:38.307Z,9.96
2023-05-05T18:08:09.587Z,9.90
2023-05-05T18:10:40.432Z,9.87
2023-05-05T18:13:11.309Z,9.84
2023-05-05T18:15:42.861Z,9.88
2023-05-05T18:18:13.922Z,10.00
2023-05-05T18:20:47.286Z,10.08
2023-05-05T18:23:18.219Z,10.23
2023-05-05T18:25:48.940Z,10.33
2023-05-05T18:28:20.629Z,10.44
2023-05-05T18:30:51.600Z,10.53
2023-05-05T18:33:22.359Z,10.63
2023-05-05T18:35:56.777Z,10.71
2023-05-05T18:38:27.617Z,10.80
2023-05-05T18:40:58.384Z,10.81
2023-05-05T18:43:29.237Z,10.93
2023-05-05T18:45:59.998Z,10.97
2023-05-05T18:48:30.925Z,11.01
2023-05-05T18:51:07.918Z,11.06
2023-05-05T18:53:38.834Z,11.08
2023-05-05T18:56:10.405Z,11.11
2023-05-05T18:58:41.183Z,11.09
2023-05-05T19:01:12.000Z,11.13
2023-05-05T19:03:42.928Z,11.17
2023-05-05T19:06:16.374Z,11.15
2023-05-05T19:08:47.427Z,11.17
2023-05-05T19:11:18.341Z,11.18
2023-05-05T19:13:49.278Z,11.18
2023-05-05T19:16:20.217Z,11.16
2023-05-05T19:18:51.140Z,11.14
2023-05-05T19:21:24.540Z,11.12
2023-05-05T19:23:55.400Z,11.11
2023-05-05T19:26:26.946Z,11.09
2023-05-05T19:28:57.865Z,11.10
2023-05-05T19:31:31.256Z,11.08
2023-05-05T19:34:08.776Z,11.05
2023-05-05T19:36:42.100Z,11.05
2023-05-05T19:39:15.319Z,11.03
2023-05-05T19:41:46.821Z,10.99
2023-05-05T19:44:17.689Z,10.95
2023-05-05T19:46:48.474Z,10.89
2023-05-05T19:49:19.417Z,10.84
2023-05-05T19:51:53.220Z,10.78
2023-05-05T19:54:24.853Z,10.75
2023-05-05T19:56:57.184Z,10.69
2023-05-05T19:59:28.260Z,10.66
2023-05-05T20:01:59.272Z,10.61
2023-05-05T20:04:30.355Z,10.59
2023-05-05T20:07:04.067Z,10.56
2023-05-05T20:09:34.886Z,10.53
2023-05-05T20:12:06.094Z,10.49
2023-05-05T20:14:37.385Z,10.47
2023-05-05T20:17:08.151Z,10.43
2023-05-05T20:19:38.989Z,10.39
2023-05-05T20:22:12.366Z,10.34
2023-05-05T20:24:43.311Z,10.30
2023-05-05T20:27:14.127Z,10.25
2023-05-05T20:29:45.085Z,10.22
2023-05-05T20:32:16.117Z,10.17
2023-05-05T20:34:46.804Z,10.13
2023-05-05T20:37:22.165Z,10.10
2023-05-05T20:39:54.039Z,10.05
2023-05-05T20:42:25.881Z,10.04
2023-05-05T20:44:56.685Z,10.02
2023-05-05T20:47:27.482Z,9.96
2023-05-05T20:49:58.234Z,9.97
2023-05-05T20:52:31.653Z,9.94
2023-05-05T20:55:02.524Z,9.74
2023-05-05T20:57:36.000Z,9.64
2023-05-05T21:00:07.571Z,9.55
2023-05-05T21:02:40.189Z,9.50
2023-05-05T21:05:12.165Z,9.49
2023-05-05T21:07:45.771Z,9.44
2023-05-05T21:10:16.526Z,9.40
2023-05-05T21:12:47.258Z,9.37
2023-05-05T21:15:18.243Z,9.35
2023-05-05T21:17:48.985Z,9.31
2023-05-05T21:20:20.207Z,9.14
2023-05-05T21:22:53.638Z,9.03
2023-05-05T21:25:25.308Z,8.87
2023-05-05T21:27:56.463Z,8.80
2023-05-05T21:30:27.389Z,8.69
2023-05-05T21:32:58.286Z,8.67
2023-05-05T21:35:29.031Z,8.56
2023-05-05T21:38:02.408Z,8.56
2023-05-05T21:40:33.191Z,8.49
2023-05-05T21:43:03.931Z,8.51
2023-05-05T21:45:35.016Z,8.43
2023-05-05T21:48:05.904Z,8.42
2023-05-05T21:50:37.462Z,8.31
2023-05-05T21:53:10.803Z,8.33
2023-05-05T21:55:48.352Z,8.26
2023-05-05T21:58:19.558Z,8.29
2023-05-05T22:00:52.714Z,8.21
2023-05-05T22:03:24.720Z,8.20
2023-05-05T22:05:55.572Z,8.11
2023-05-05T22:08:28.922Z,8.16
2023-05-05T22:10:59.787Z,8.11
2023-05-05T22:13:30.399Z,8.11
2023-05-05T22:16:01.234Z,8.05
2023-05-05T22:18:31.930Z,8.04
2023-05-05T22:21:02.686Z,8.00
2023-05-05T22:23:37.536Z,7.99
2023-05-05T22:26:08.777Z,7.97
2023-05-05T22:28:39.566Z,7.97
2023-05-05T22:31:10.376Z,7.91
2023-05-05T22:33:41.302Z,7.92
2023-05-05T22:36:13.384Z,7.91
2023-05-05T22:38:46.706Z,7.87
2023-05-05T22:41:17.439Z,7.85
2023-05-05T22:43:49.473Z,7.81
2023-05-05T22:46:20.255Z,7.81
2023-05-05T22:48:51.032Z,7.78
2023-05-05T22:51:22.095Z,7.78
2023-05-05T22:53:55.410Z,7.77
2023-05-05T22:56:26.291Z,7.77
2023-05-05T22:58:57.050Z,7.78
2023-05-05T23:01:27.934Z,7.71
2023-05-05T23:03:59.433Z,7.67
2023-05-05T23:06:30.672Z,7.65
2023-05-05T23:09:03.924Z,7.67
2023-05-05T23:11:34.653Z,7.68
2023-05-05T23:14:05.338Z,7.70
2023-05-05T23:16:36.280Z,7.70
2023-05-05T23:19:07.087Z,7.72
2023-05-05T23:21:49.303Z,7.72
2023-05-05T23:24:26.454Z,7.72
2023-05-05T23:26:58.509Z,7.69
2023-05-05T23:29:29.563Z,7.70
2023-05-05T23:32:01.070Z,7.69
2023-05-05T23:34:31.900Z,7.68
2023-05-05T23:37:04.611Z,7.67
2023-05-05T23:39:39.662Z,7.67
2023-05-05T23:42:10.469Z,7.67
2023-05-05T23:44:41.188Z,7.65
2023-05-05T23:47:12.010Z,7.69
2023-05-05T23:49:42.780Z,7.66
2023-05-05T23:52:14.528Z,7.72
2023-05-05T23:54:48.457Z,7.69
2023-05-05T23:57:19.245Z,7.76
2023-05-05T23:59:50.165Z,7.71
